Time;durP1;ratioP1;P1;durP2;ratioP2;P2;SDS_P1;SDS_P2;PMS_P1;PMS_P2;Temp;Humidity;BMP_temperature;BMP_pressure;BME280_temperature;BME280_humidity;BME280_pressure;Samples;Min_cycle;Max_cycle;Signal;HPM_P1;HPM_P2
2022/08/12 00:43:15;;;;;;;8.64;7.57;;;;;;;27.15;42.10;100646.62;457180;116;922722;-75
2022/08/12 00:44:20;;;;;;;8.86;8.05;;;;;;;27.14;42.07;100647.77;456768;115;922846;-75
2022/08/12 00:45:25;;;;;;;8.38;7.49;;;;;;;27.14;41.97;100650.56;456344;116;922622;-75
2022/08/12 00:46:35;;;;;;;9.69;8.38;;;;;;;27.14;41.91;100639.37;456438;115;923855;-76
2022/08/12 00:47:39;;;;;;;8.33;7.70;;;;;;;27.14;41.87;100645.80;456236;115;922698;-77
2022/08/12 00:48:42;;;;;;;9.09;8.22;;;;;;;27.14;41.84;100644.97;456359;115;922650;-76
2022/08/12 00:49:48;;;;;;;8.37;7.65;;;;;;;27.15;41.84;100646.62;456485;116;922634;-76
2022/08/12 00:50:54;;;;;;;8.20;7.60;;;;;;;27.15;41.88;100649.42;456335;116;922719;-76
2022/08/12 00:52:06;;;;;;;9.02;8.21;;;;;;;27.14;41.84;100651.39;456381;115;922631;-73
2022/08/12 00:53:09;;;;;;;8.14;7.24;;;;;;;27.15;41.88;100649.42;456330;116;922734;-73
2022/08/12 00:54:12;;;;;;;8.53;7.83;;;;;;;27.15;41.88;100646.62;456414;115;922707;-74
2022/08/12 00:55:17;;;;;;;8.45;7.73;;;;;;;27.15;41.86;100643.82;456464;116;930539;-73
2022/08/12 00:56:23;;;;;;;7.83;7.25;;;;;;;27.15;41.85;100646.62;456354;115;922613;-74
2022/08/12 00:57:29;;;;;;;8.93;8.09;;;;;;;27.16;41.96;100642.67;456298;115;922701;-74
2022/08/12 00:58:33;;;;;;;8.46;7.56;;;;;;;27.16;41.94;100642.67;456319;116;922624;-74
2022/08/12 00:59:40;;;;;;;8.86;7.51;;;;;;;27.15;42.01;100641.02;452857;116;922683;-74
2022/08/12 01:00:44;;;;;;;8.47;7.58;;;;;;;27.14;42.11;100640.19;448420;117;922737;-75
2022/08/12 01:01:49;;;;;;;8.43;7.72;;;;;;;27.14;42.27;100639.37;448666;118;922773;-74
2022/08/12 01:02:57;;;;;;;8.65;7.89;;;;;;;27.14;42.23;100637.39;448949;117;930665;-74
2022/08/12 01:12:16;;;;;;;9.88;7.83;;;;;;;27.05;41.83;100632.92;456397;116;922608;-74
2022/08/12 01:13:21;;;;;;;11.25;8.29;;;;;;;27.04;41.84;100631.27;456446;116;922752;-74
2022/08/12 01:14:24;;;;;;;8.39;7.80;;;;;;;27.02;41.94;100633.55;456558;116;922654;-76
2022/08/12 01:15:27;;;;;;;8.56;7.82;;;;;;;27.02;41.98;100627.95;456431;116;922676;-75
2022/08/12 01:16:31;;;;;;;8.93;7.36;;;;;;;27.02;41.98;100636.35;456421;115;922704;-74
2022/08/12 01:17:34;;;;;;;8.31;7.64;;;;;;;27.01;41.94;100631.92;456516;115;922714;-75
2022/08/12 01:18:39;;;;;;;8.51;7.74;;;;;;;27.01;41.93;100640.32;456506;115;922706;-76
2022/08/12 01:19:42;;;;;;;9.42;8.27;;;;;;;26.99;41.87;100637.84;456301;116;922814;-75
2022/08/12 01:20:55;;;;;;;7.75;7.12;;;;;;;26.99;41.88;100640.64;456412;116;922617;-75
2022/08/12 01:22:14;;;;;;;10.57;7.67;;;;;;;26.99;41.88;100635.04;456053;115;922535;-75
2022/08/12 01:23:24;;;;;;;7.54;6.98;;;;;;;26.99;41.83;100635.04;442170;119;923273;-75
2022/08/12 01:25:03;;;;;;;8.47;7.78;;;;;;;26.97;41.82;100638.16;451076;115;922597;-76
2022/08/12 01:26:09;;;;;;;10.58;8.06;;;;;;;26.96;41.93;100635.67;456498;116;922651;-75
2022/08/12 01:27:15;;;;;;;8.03;7.34;;;;;;;26.93;42.06;100625.96;456395;116;922642;-74
2022/08/12 01:28:20;;;;;;;8.71;7.69;;;;;;;26.91;42.11;100619.85;456434;115;922714;-75
2022/08/12 01:29:28;;;;;;;8.95;8.12;;;;;;;26.91;42.10;100627.42;456355;116;922659;-75
2022/08/12 01:30:35;;;;;;;8.56;7.77;;;;;;;26.90;42.12;100617.40;445955;118;922610;-75
2022/08/12 01:31:42;;;;;;;7.98;7.41;;;;;;;26.89;41.69;100616.57;440268;120;922689;-75
2022/08/12 01:32:48;;;;;;;8.59;7.77;;;;;;;26.89;41.69;100616.57;440194;120;931040;-75
2022/08/12 01:33:58;;;;;;;8.61;7.71;;;;;;;26.88;42.13;100614.09;442424;118;922726;-75
2022/08/12 01:35:05;;;;;;;8.78;7.94;;;;;;;26.88;42.09;100614.91;442017;120;922709;-75
2022/08/12 01:36:10;;;;;;;8.13;7.45;;;;;;;26.86;42.09;100619.97;441689;120;923477;-75
2022/08/12 01:37:17;;;;;;;9.06;8.46;;;;;;;26.86;42.07;100614.38;441749;120;922618;-75
2022/08/12 01:38:22;;;;;;;8.87;7.95;;;;;;;26.85;42.03;100621.11;441614;120;930514;-75
2022/08/12 01:39:39;;;;;;;8.86;8.26;;;;;;;26.84;42.08;100611.09;439767;120;922936;-75
2022/08/12 01:40:46;;;;;;;9.76;8.96;;;;;;;26.83;42.12;100606.64;439246;120;922730;-75
2022/08/12 01:41:55;;;;;;;9.34;8.68;;;;;;;26.82;42.08;100602.19;441668;120;923366;-75
2022/08/12 01:43:07;;;;;;;8.65;7.93;;;;;;;26.81;42.11;100608.09;441665;120;923349;-75
2022/08/12 01:44:12;;;;;;;9.22;8.30;;;;;;;26.80;42.12;100604.47;441723;119;922665;-76
2022/08/12 01:45:21;;;;;;;9.22;8.42;;;;;;;26.78;42.05;100598.39;443749;119;922737;-76
2022/08/12 01:46:34;;;;;;;9.37;8.54;;;;;;;26.78;42.12;100603.16;443816;119;922898;-75
2022/08/12 01:47:52;;;;;;;8.93;7.57;;;;;;;26.78;42.04;100597.56;443826;119;922690;-75
2022/08/12 01:49:18;;;;;;;9.03;8.32;;;;;;;26.76;42.06;100599.84;442749;119;922627;-75
2022/08/12 01:50:35;;;;;;;8.77;8.02;;;;;;;26.75;42.03;100589.80;443828;119;922684;-75
2022/08/12 01:51:41;;;;;;;9.03;8.23;;;;;;;26.73;42.05;100586.52;443836;119;923117;-76
2022/08/12 01:52:59;;;;;;;8.98;8.18;;;;;;;26.72;42.08;100591.28;441189;119;922697;-76
2022/08/12 01:54:08;;;;;;;8.76;8.18;;;;;;;26.71;42.15;100583.20;443592;119;922745;-75
2022/08/12 01:55:14;;;;;;;9.21;8.20;;;;;;;26.71;42.15;100583.20;443789;119;922719;-75
2022/08/12 01:56:21;;;;;;;8.72;8.02;;;;;;;26.70;42.19;100575.95;434916;119;923426;-75
2022/08/12 01:57:43;;;;;;;8.82;8.22;;;;;;;26.69;42.19;100579.89;434283;122;922924;-75
2022/08/12 02:00:12;;;;;;;8.28;7.60;;;;;;;26.68;42.31;100570.70;435257;122;922774;-74
2022/08/12 02:01:17;;;;;;;9.44;8.67;;;;;;;26.67;42.50;100573.81;435172;122;922696;-75
2022/08/12 02:02:33;;;;;;;7.96;7.25;;;;;;;26.67;42.61;100576.61;435238;122;922666;-75
2022/08/12 02:11:52;;;;;;;9.56;8.83;;;;;;;26.57;43.64;100583.32;441474;120;922759;-75
2022/08/12 02:13:08;;;;;;;9.23;8.59;;;;;;;26.54;43.77;100589.53;442499;120;922668;-75
2022/08/12 02:14:37;;;;;;;13.54;9.39;;;;;;;26.52;43.84;100584.26;441561;120;922666;-75
2022/08/12 02:15:44;;;;;;;9.76;8.84;;;;;;;26.52;43.73;100587.05;440552;120;923290;-75
2022/08/12 02:17:09;;;;;;;9.64;8.46;;;;;;;26.50;43.70;100583.77;448236;118;922676;-75
2022/08/12 02:18:32;;;;;;;9.24;8.41;;;;;;;26.49;43.69;100590.51;441538;120;922857;-75
2022/08/12 02:20:02;;;;;;;9.03;8.34;;;;;;;26.49;43.81;100589.67;442570;120;922721;-75
2022/08/12 02:21:08;;;;;;;9.61;8.76;;;;;;;26.50;43.90;100591.33;442484;120;922848;-75
2022/08/12 02:22:37;;;;;;;13.03;9.31;;;;;;;26.48;44.00;100594.44;441546;120;922658;-75
2022/08/12 02:23:39;;;;;;;9.33;8.71;;;;;;;26.48;43.97;100594.44;442603;120;922791;-75
2022/08/12 02:24:45;;;;;;;9.71;8.91;;;;;;;26.47;43.82;100600.34;442690;120;922686;-76
2022/08/12 02:25:53;;;;;;;9.75;9.04;;;;;;;26.47;43.83;100600.34;442580;120;922915;-76
2022/08/12 02:26:57;;;;;;;9.45;8.70;;;;;;;26.47;43.79;100597.55;442613;120;922781;-75
2022/08/12 02:28:00;;;;;;;10.24;9.50;;;;;;;26.47;43.86;100600.34;442709;120;923157;-75
2022/08/12 02:29:06;;;;;;;9.88;9.08;;;;;;;26.48;43.97;100605.63;442016;120;922876;-75
2022/08/12 02:30:13;;;;;;;9.69;8.95;;;;;;;26.48;43.95;100602.00;437149;120;922735;-75
2022/08/12 02:31:16;;;;;;;9.94;9.06;;;;;;;26.47;44.06;100595.58;436655;120;930510;-76
2022/08/12 02:32:20;;;;;;;9.65;8.87;;;;;;;26.48;44.14;100594.44;444505;119;922661;-75
2022/08/12 02:33:24;;;;;;;10.12;9.19;;;;;;;26.49;44.19;100595.27;435036;122;922648;-76
2022/08/12 02:34:29;;;;;;;9.36;8.53;;;;;;;26.50;44.23;100602.52;438710;120;923271;-76
2022/08/12 02:35:35;;;;;;;8.99;8.38;;;;;;;26.50;44.35;100591.33;440702;120;922694;-75
2022/08/12 02:36:39;;;;;;;9.60;8.87;;;;;;;26.50;44.28;100603.34;440693;120;922701;-76
2022/08/12 02:37:44;;;;;;;10.00;8.47;;;;;;;26.50;44.23;100591.33;440796;120;922644;-75
2022/08/12 02:38:48;;;;;;;9.89;9.10;;;;;;;26.50;44.25;100588.53;440704;120;923028;-75
2022/08/12 02:39:55;;;;;;;9.34;8.64;;;;;;;26.50;44.38;100586.57;440738;120;922724;-75
2022/08/12 02:41:00;;;;;;;9.56;8.76;;;;;;;26.51;44.41;100590.19;440623;120;923263;-76
2022/08/12 02:42:05;;;;;;;9.35;8.62;;;;;;;26.51;44.65;100585.42;440644;120;922625;-76
2022/08/12 02:43:18;;;;;;;9.62;8.92;;;;;;;26.51;44.73;100592.99;440655;120;923076;-76
2022/08/12 02:44:24;;;;;;;9.47;8.31;;;;;;;26.51;44.85;100592.99;440780;118;922704;-76
2022/08/12 02:45:37;;;;;;;9.96;8.24;;;;;;;26.50;44.69;100594.95;440835;120;922860;-75
2022/08/12 02:46:43;;;;;;;9.53;8.70;;;;;;;26.50;44.66;100588.53;440905;120;922621;-76
2022/08/12 02:47:49;;;;;;;8.72;8.00;;;;;;;26.50;44.52;100591.33;440941;120;922993;-76
2022/08/12 02:49:06;;;;;;;8.66;7.88;;;;;;;26.49;44.33;100593.30;447642;118;922580;-76
2022/08/12 02:50:15;;;;;;;8.52;7.92;;;;;;;26.49;44.12;100592.48;446826;118;923092;-76
2022/08/12 02:51:22;;;;;;;10.93;8.03;;;;;;;26.49;43.98;100595.27;449208;118;922697;-75
2022/08/12 02:52:26;;;;;;;10.32;8.32;;;;;;;26.48;43.89;100599.20;452661;117;922822;-76
2022/08/12 02:53:31;;;;;;;7.99;7.42;;;;;;;26.48;43.87;100597.23;454023;117;922910;-76
2022/08/12 02:54:35;;;;;;;10.35;7.65;;;;;;;26.48;43.75;100593.61;453939;117;922614;-76
2022/08/12 02:55:38;;;;;;;9.48;7.79;;;;;;;26.48;43.69;100594.44;453782;117;930523;-76
2022/08/12 02:56:42;;;;;;;8.38;7.47;;;;;;;26.47;43.65;100592.78;454131;117;922669;-76
2022/08/12 02:57:49;;;;;;;8.63;7.03;;;;;;;26.47;43.68;100598.38;453186;117;922705;-76
2022/08/12 02:58:54;;;;;;;8.68;7.86;;;;;;;26.48;43.81;100596.41;453946;117;922842;-76
2022/08/12 03:00:01;;;;;;;8.55;7.82;;;;;;;26.48;43.97;100600.03;454050;117;922674;-76
2022/08/12 03:01:08;;;;;;;7.37;6.78;;;;;;;26.48;44.12;100600.03;453909;117;922777;-76
2022/08/12 03:02:12;;;;;;;7.77;7.11;;;;;;;26.48;44.03;100602.00;453887;117;922919;-76
2022/08/12 03:03:18;;;;;;;7.50;6.92;;;;;;;26.49;44.01;100603.66;453937;117;922634;-75
2022/08/12 03:04:39;;;;;;;9.37;7.13;;;;;;;26.50;43.98;100602.52;453915;117;922666;-76
2022/08/12 03:05:48;;;;;;;8.26;6.93;;;;;;;26.50;43.89;100597.76;455070;116;922632;-76
2022/08/12 03:07:09;;;;;;;8.55;6.96;;;;;;;26.50;43.84;100606.14;455470;116;922706;-75
2022/08/12 03:08:16;;;;;;;7.83;7.14;;;;;;;26.51;43.75;100601.38;455409;116;922684;-76
2022/08/12 03:09:22;;;;;;;8.41;6.47;;;;;;;26.50;43.78;100608.94;452449;116;922906;-76
2022/08/12 03:10:30;;;;;;;9.22;7.03;;;;;;;26.52;43.65;100619.78;455435;116;922660;-76
2022/08/12 03:11:41;;;;;;;6.78;6.18;;;;;;;26.52;43.59;100619.78;454756;116;923006;-75
2022/08/12 03:12:47;;;;;;;7.26;6.62;;;;;;;26.52;43.56;100617.81;454580;116;922942;-75
2022/08/12 03:13:56;;;;;;;7.26;6.65;;;;;;;26.53;43.50;100618.64;455325;116;922614;-75
2022/08/12 03:15:03;;;;;;;6.40;5.84;;;;;;;26.54;43.57;100618.33;454673;116;922860;-75
2022/08/12 03:16:07;;;;;;;7.22;6.61;;;;;;;26.56;43.65;100618.02;452543;117;922674;-75
2022/08/12 03:17:23;;;;;;;7.89;6.56;;;;;;;26.57;43.81;100619.67;452656;117;922934;-76
2022/08/12 03:18:30;;;;;;;7.47;6.76;;;;;;;26.57;43.97;100623.27;452388;117;930452;-76
2022/08/12 03:19:33;;;;;;;7.18;6.52;;;;;;;26.59;44.11;100634.14;452572;117;922787;-75
2022/08/12 03:20:39;;;;;;;6.36;5.86;;;;;;;26.60;44.15;100630.21;452639;117;923150;-76
2022/08/12 03:21:44;;;;;;;9.39;6.46;;;;;;;26.61;43.99;100628.23;452510;117;922696;-76
2022/08/12 03:22:50;;;;;;;6.29;5.68;;;;;;;26.61;44.00;100629.07;449778;117;922743;-76
2022/08/12 03:23:54;;;;;;;7.16;6.47;;;;;;;26.63;44.12;100629.55;452681;117;922736;-77
2022/08/12 03:25:02;;;;;;;5.96;5.51;;;;;;;26.63;44.08;100635.15;452658;117;922567;-75
2022/08/12 03:26:05;;;;;;;7.06;5.86;;;;;;;26.64;44.13;100633.17;452569;117;922837;-76
2022/08/12 03:27:12;;;;;;;7.30;6.06;;;;;;;26.64;44.19;100631.21;452706;117;922662;-76
2022/08/12 03:28:49;;;;;;;7.00;6.41;;;;;;;26.66;44.31;100642.09;452598;117;922923;-76
2022/08/12 03:29:27;;;;;;;8.01;6.55;;;;;;;26.67;44.33;100638.98;449474;117;922665;-76
2022/08/12 03:30:31;;;;;;;6.62;5.95;;;;;;;26.66;44.37;100634.52;449202;115;922962;-75
2022/08/12 03:31:34;;;;;;;7.43;6.67;;;;;;;26.66;44.40;100631.73;459607;115;922693;-76
2022/08/12 03:32:40;;;;;;;6.56;5.96;;;;;;;26.67;44.42;100635.35;459783;115;922663;-76
2022/08/12 03:33:46;;;;;;;10.52;6.70;;;;;;;26.67;44.48;100640.95;459138;115;922904;-76
2022/08/12 03:34:53;;;;;;;7.13;6.49;;;;;;;26.67;44.45;100638.98;454856;116;922742;-75
2022/08/12 03:35:59;;;;;;;6.97;6.43;;;;;;;26.67;44.45;100641.77;457123;116;922685;-75
2022/08/12 03:37:04;;;;;;;7.06;6.31;;;;;;;26.67;44.47;100641.77;457121;116;922841;-75
2022/08/12 03:38:10;;;;;;;7.09;6.39;;;;;;;26.68;44.56;100645.41;457146;116;922986;-75
2022/08/12 03:42:10;;;;;;;10.05;5.44;;;;;;;26.67;44.97;100644.57;457151;116;922655;-76
2022/08/12 04:00:24;;;;;;;6.36;5.76;;;;;;;26.65;45.59;100685.18;449265;117;922719;-76
2022/08/12 04:01:27;;;;;;;7.32;6.25;;;;;;;26.64;45.67;100678.76;449413;117;922873;-76
2022/08/12 04:02:33;;;;;;;10.01;7.24;;;;;;;26.64;45.56;100681.55;449528;117;923229;-76
2022/08/12 04:03:51;;;;;;;8.11;7.10;;;;;;;26.64;45.54;100684.35;449306;118;923142;-76
2022/08/12 04:04:55;;;;;;;8.71;7.22;;;;;;;26.64;45.57;100680.73;450697;115;922669;-75
2022/08/12 04:05:58;;;;;;;7.58;6.91;;;;;;;26.63;45.57;100677.10;458213;115;922681;-75
2022/08/12 04:07:06;;;;;;;8.54;7.21;;;;;;;26.64;45.58;100677.93;458354;115;922614;-76
2022/08/12 04:08:10;;;;;;;7.52;6.83;;;;;;;26.65;45.63;100683.21;458190;115;922713;-75
2022/08/12 04:09:13;;;;;;;10.24;6.95;;;;;;;26.64;45.61;100675.96;458289;115;922681;-75
2022/08/12 04:10:20;;;;;;;7.47;6.67;;;;;;;26.66;45.69;100679.28;458135;115;922661;-75
2022/08/12 04:13:15;;;;;;;8.06;7.31;;;;;;;26.67;45.86;100683.73;458127;115;923158;-75
2022/08/12 04:14:19;;;;;;;8.14;7.42;;;;;;;26.70;45.84;100685.05;458182;115;922622;-75
2022/08/12 04:15:26;;;;;;;7.19;6.53;;;;;;;26.71;45.84;100673.55;457660;115;922700;-76
2022/08/12 04:16:30;;;;;;;9.39;7.84;;;;;;;26.72;45.80;100682.77;457200;116;922761;-76
2022/08/12 04:17:34;;;;;;;7.99;7.29;;;;;;;26.76;46.20;100678.17;457310;116;922909;-75
2022/08/12 04:18:39;;;;;;;7.78;7.18;;;;;;;26.76;46.20;100678.17;457104;116;930466;-75
2022/08/12 04:19:45;;;;;;;7.99;7.29;;;;;;;26.77;45.77;100677.03;457288;115;922713;-76
2022/08/12 04:20:48;;;;;;;8.22;7.61;;;;;;;26.81;45.75;100687.26;457116;116;922662;-76
2022/08/12 04:21:54;;;;;;;8.99;7.42;;;;;;;26.85;45.73;100688.27;457330;115;922626;-76
2022/08/12 04:22:59;;;;;;;9.19;6.93;;;;;;;26.88;45.77;100689.63;456449;115;922622;-74
2022/08/12 04:24:04;;;;;;;8.19;7.28;;;;;;;26.91;45.69;100687.02;457312;116;922642;-75
2022/08/12 04:25:09;;;;;;;9.09;7.42;;;;;;;26.96;45.66;100688.84;457117;115;922974;-75
2022/08/12 04:26:13;;;;;;;10.17;7.78;;;;;;;26.97;45.86;100680.13;457108;116;922758;-76
2022/08/12 04:27:16;;;;;;;8.11;6.72;;;;;;;27.00;45.93;100681.48;457351;115;922691;-75
2022/08/12 04:28:27;;;;;;;10.52;7.26;;;;;;;27.03;45.83;100688.38;457339;116;922697;-75
2022/08/12 04:29:30;;;;;;;8.76;7.63;;;;;;;27.07;45.71;100697.81;456692;116;922671;-75
2022/08/12 04:30:35;;;;;;;7.49;6.97;;;;;;;27.09;45.59;100689.90;448055;116;922681;-75
2022/08/12 04:31:42;;;;;;;7.98;7.18;;;;;;;27.13;45.51;100693.70;456467;116;923656;-76
2022/08/12 04:32:49;;;;;;;8.11;7.38;;;;;;;27.16;45.43;100693.06;456370;116;922646;-75
2022/08/12 04:33:53;;;;;;;8.89;7.82;;;;;;;27.20;45.45;100694.89;456586;116;922672;-76
2022/08/12 04:34:56;;;;;;;8.02;7.33;;;;;;;27.22;45.30;100695.41;457391;116;922662;-76
2022/08/12 04:35:59;;;;;;;8.23;7.54;;;;;;;27.26;45.21;100701.17;457369;116;922727;-75
2022/08/12 04:37:02;;;;;;;7.87;7.25;;;;;;;27.29;45.12;100697.74;457413;115;922564;-76
2022/08/12 04:38:06;;;;;;;7.79;7.14;;;;;;;27.31;44.88;100687.85;457429;116;922792;-76
2022/08/12 04:39:10;;;;;;;7.99;7.31;;;;;;;27.35;44.81;100699.22;457304;116;922707;-76
2022/08/12 04:40:15;;;;;;;8.11;7.46;;;;;;;27.38;44.71;100695.78;457252;115;922719;-76
2022/08/12 04:41:24;;;;;;;7.99;7.19;;;;;;;27.40;44.63;100699.90;456088;115;930536;-76
2022/08/12 04:42:27;;;;;;;9.73;7.41;;;;;;;27.45;44.59;100696.15;457172;116;922736;-76
2022/08/12 04:43:30;;;;;;;8.57;7.59;;;;;;;27.49;44.58;100699.11;457331;116;922946;-76
2022/08/12 04:44:35;;;;;;;8.58;7.73;;;;;;;27.52;44.63;100699.31;451791;116;922700;-77
2022/08/12 04:45:39;;;;;;;8.06;7.35;;;;;;;27.55;44.54;100697.84;449445;116;922621;-76
2022/08/12 04:46:42;;;;;;;8.19;7.43;;;;;;;27.57;44.52;100695.53;449406;118;922826;-76
2022/08/12 04:47:46;;;;;;;9.79;7.66;;;;;;;27.60;44.53;100704.13;449421;117;926359;-76
2022/08/12 04:48:49;;;;;;;8.06;7.47;;;;;;;27.62;44.49;100695.41;449365;117;922766;-76
2022/08/12 04:49:52;;;;;;;7.87;7.11;;;;;;;27.65;44.42;100700.34;449468;118;922713;-76
2022/08/12 04:50:56;;;;;;;8.12;7.54;;;;;;;27.66;44.31;100702.83;449358;118;922695;-76
2022/08/12 04:52:01;;;;;;;8.25;7.55;;;;;;;27.67;44.22;100698.88;449377;117;924197;-76
2022/08/12 04:53:05;;;;;;;8.32;7.52;;;;;;;27.67;44.20;100700.85;449319;118;922625;-76
2022/08/12 04:54:09;;;;;;;8.78;7.76;;;;;;;27.67;44.03;100706.45;449290;118;922806;-74
2022/08/12 04:55:12;;;;;;;8.59;7.68;;;;;;;27.66;43.93;100702.83;449424;117;930642;-75
2022/08/12 04:56:16;;;;;;;11.34;7.09;;;;;;;27.67;43.95;100700.85;449339;118;922677;-75
2022/08/12 04:57:19;;;;;;;9.79;7.95;;;;;;;27.67;44.00;100710.09;449422;118;922667;-75
2022/08/12 04:58:22;;;;;;;7.99;7.31;;;;;;;27.67;44.01;100709.26;449481;118;923109;-76
2022/08/12 04:59:27;;;;;;;9.67;8.10;;;;;;;27.69;44.05;100709.73;448471;118;922825;-76
2022/08/12 05:00:33;;;;;;;8.75;8.06;;;;;;;27.69;44.03;100712.54;449370;118;922707;-75
2022/08/12 05:01:36;;;;;;;8.21;7.25;;;;;;;27.70;44.08;100714.20;449341;118;922814;-75
2022/08/12 05:02:39;;;;;;;8.63;8.06;;;;;;;27.70;44.04;100703.81;449467;118;922657;-76
2022/08/12 05:03:44;;;;;;;8.86;7.86;;;;;;;27.71;43.96;100705.47;449220;118;922683;-75
2022/08/12 05:04:56;;;;;;;10.12;7.89;;;;;;;27.71;43.98;100708.27;449835;116;922657;-75
2022/08/12 05:06:01;;;;;;;8.25;7.56;;;;;;;27.71;44.04;100707.45;457163;116;922809;-76
2022/08/12 05:07:07;;;;;;;7.73;7.16;;;;;;;27.73;44.04;100708.75;457389;116;922693;-75
2022/08/12 05:08:15;;;;;;;9.32;7.57;;;;;;;27.74;44.07;100716.02;457139;116;923439;-75
2022/08/12 05:09:19;;;;;;;9.15;8.24;;;;;;;27.76;44.16;100708.12;457167;116;922846;-76
2022/08/12 05:10:24;;;;;;;8.97;8.26;;;;;;;27.76;44.32;100705.31;457187;116;922709;-75
2022/08/12 05:11:29;;;;;;;10.54;7.89;;;;;;;27.77;44.38;100712.58;457046;116;922896;-75
2022/08/12 05:12:36;;;;;;;9.30;8.51;;;;;;;27.79;44.13;100709.42;457398;116;922710;-75
2022/08/12 05:13:40;;;;;;;8.53;7.69;;;;;;;27.82;44.01;100705.16;457161;116;922689;-76
2022/08/12 05:14:43;;;;;;;9.04;7.84;;;;;;;27.83;43.82;100704.84;457275;116;922603;-76
2022/08/12 05:15:47;;;;;;;8.33;7.71;;;;;;;27.86;43.70;100714.55;449391;118;930517;-76
2022/08/12 05:16:52;;;;;;;9.12;7.79;;;;;;;27.88;43.67;100706.66;440367;120;922823;-75
2022/08/12 05:17:55;;;;;;;8.33;7.57;;;;;;;27.91;43.58;100714.39;441231;120;922781;-75
2022/08/12 05:19:00;;;;;;;8.85;8.10;;;;;;;27.93;43.42;100714.90;449106;118;922702;-75
2022/08/12 05:20:05;;;;;;;9.68;8.77;;;;;;;27.95;43.35;100715.41;449330;118;922832;-76
2022/08/12 05:21:10;;;;;;;8.21;7.55;;;;;;;27.96;43.28;100711.43;449226;118;922698;-75
2022/08/12 05:22:13;;;;;;;9.09;8.00;;;;;;;27.98;43.20;100714.73;449488;118;922632;-76
2022/08/12 05:23:19;;;;;;;8.38;7.69;;;;;;;27.99;43.06;100706.02;449488;118;922665;-75
2022/08/12 05:24:22;;;;;;;9.49;7.79;;;;;;;28.00;43.00;100712.45;449200;118;922697;-75
2022/08/12 05:25:25;;;;;;;9.64;8.73;;;;;;;28.00;42.92;100710.47;449444;118;922690;-75
2022/08/12 05:26:29;;;;;;;8.81;8.02;;;;;;;28.00;42.89;100704.87;449339;118;922642;-76
2022/08/12 05:27:33;;;;;;;9.23;8.26;;;;;;;28.01;42.91;100708.46;449495;118;922682;-75
2022/08/12 05:28:36;;;;;;;10.23;9.10;;;;;;;28.00;42.84;100706.84;449379;118;922724;-75
2022/08/12 05:29:40;;;;;;;8.63;7.98;;;;;;;28.00;42.86;100707.67;442205;119;922909;-75
2022/08/12 05:30:46;;;;;;;9.28;7.76;;;;;;;28.00;42.85;100709.64;449052;117;922683;-74
2022/08/12 05:31:55;;;;;;;8.25;7.61;;;;;;;27.98;42.95;100698.75;449022;118;923259;-74
2022/08/12 05:32:54;;;;;;;8.78;8.14;;;;;;;27.98;42.96;100701.55;448598;118;922767;-75
2022/08/12 05:34:00;;;;;;;8.75;8.11;;;;;;;27.98;43.00;100709.14;452126;116;922733;-76
2022/08/12 05:35:05;;;;;;;8.23;7.72;;;;;;;27.97;43.04;100704.67;457355;116;922940;-75
2022/08/12 05:36:14;;;;;;;8.75;7.93;;;;;;;27.97;43.08;100704.67;446513;118;922761;-76
2022/08/12 05:37:17;;;;;;;8.44;7.66;;;;;;;27.97;43.10;100707.48;448307;116;922818;-76
2022/08/12 05:39:41;;;;;;;8.41;7.75;;;;;;;27.97;43.00;100701.87;457152;116;922799;-75
2022/08/12 05:40:44;;;;;;;8.54;7.86;;;;;;;27.97;42.96;100699.90;454987;116;922766;-75
2022/08/12 05:41:48;;;;;;;9.15;8.41;;;;;;;27.97;42.89;100699.07;449369;116;922763;-75
2022/08/12 05:42:51;;;;;;;13.41;8.58;;;;;;;27.99;42.85;100705.19;449481;118;922679;-76
2022/08/12 05:43:59;;;;;;;10.25;8.53;;;;;;;28.00;42.81;100710.47;449447;118;922675;-75
2022/08/12 05:45:03;;;;;;;8.64;7.79;;;;;;;28.02;42.81;100704.52;449282;118;922754;-76
2022/08/12 05:46:06;;;;;;;8.48;7.83;;;;;;;28.03;42.80;100706.17;448337;117;922925;-75
2022/08/12 05:47:13;;;;;;;8.63;7.80;;;;;;;28.05;42.85;100707.50;445212;119;922816;-75
2022/08/12 05:48:16;;;;;;;8.32;7.51;;;;;;;28.06;42.83;100703.52;445174;119;923027;-75
2022/08/12 05:49:19;;;;;;;8.72;7.96;;;;;;;28.08;42.81;100706.00;445299;119;922678;-75
2022/08/12 05:50:24;;;;;;;10.42;9.16;;;;;;;28.10;42.81;100709.31;445269;119;922728;-75
2022/08/12 05:51:30;;;;;;;9.10;8.20;;;;;;;28.12;42.76;100713.45;445239;119;922962;-75
2022/08/12 05:52:35;;;;;;;8.47;7.71;;;;;;;28.14;42.76;100707.53;444984;119;922724;-75
2022/08/12 05:53:39;;;;;;;8.78;7.89;;;;;;;28.15;42.67;100711.98;445283;119;922799;-75
2022/08/12 05:54:43;;;;;;;8.38;7.78;;;;;;;28.17;42.52;100713.29;445200;119;923162;-75
2022/08/12 05:55:51;;;;;;;9.14;8.22;;;;;;;28.19;42.48;100710.99;444772;119;930540;-75
2022/08/12 05:56:54;;;;;;;10.52;8.71;;;;;;;28.20;42.46;100703.41;445075;119;922765;-72
2022/08/12 05:57:57;;;;;;;8.71;8.12;;;;;;;28.23;42.37;100708.34;445311;119;922763;-75
2022/08/12 05:59:03;;;;;;;9.03;7.88;;;;;;;28.24;42.25;100712.80;445282;119;923054;-75
2022/08/12 06:00:06;;;;;;;8.23;7.59;;;;;;;28.26;42.14;100710.51;445110;119;922759;-75
2022/08/12 06:01:11;;;;;;;8.62;7.94;;;;;;;28.28;42.01;100699.80;444926;119;923460;-75
2022/08/12 06:02:16;;;;;;;8.95;8.11;;;;;;;28.30;41.95;100700.27;442540;119;923356;-75
2022/08/12 06:03:20;;;;;;;8.13;7.46;;;;;;;28.32;41.87;100702.75;445375;119;922870;-75
2022/08/12 06:04:23;;;;;;;9.45;8.63;;;;;;;28.34;41.80;100706.06;445266;119;923837;-75
2022/08/12 06:05:33;;;;;;;8.79;8.07;;;;;;;28.35;41.77;100708.52;446527;118;922637;-75
2022/08/12 06:06:40;;;;;;;8.67;7.92;;;;;;;28.37;41.71;100700.61;444279;118;923038;-75
2022/08/12 06:07:46;;;;;;;9.84;8.88;;;;;;;28.39;41.68;100706.72;446989;118;922599;-75
2022/08/12 06:08:53;;;;;;;8.67;7.90;;;;;;;28.41;41.69;100709.17;444297;118;922688;-75
2022/08/12 06:09:56;;;;;;;9.71;8.70;;;;;;;28.43;41.71;100709.67;446972;118;922717;-74
2022/08/12 06:11:01;;;;;;;8.84;8.11;;;;;;;28.45;41.74;100713.78;447093;118;923002;-75
2022/08/12 06:12:04;;;;;;;9.45;8.62;;;;;;;28.47;41.75;100714.28;446989;118;930563;-75
2022/08/12 06:13:09;;;;;;;8.28;7.67;;;;;;;28.49;41.78;100717.59;446997;118;922657;-75
2022/08/12 06:14:12;;;;;;;8.78;8.06;;;;;;;28.51;41.83;100717.24;447141;118;930519;-74
2022/08/12 06:15:19;;;;;;;9.30;8.52;;;;;;;28.52;41.85;100718.89;445917;118;922867;-75
2022/08/12 06:16:24;;;;;;;10.31;8.37;;;;;;;28.55;41.78;100716.27;445122;119;922685;-75
2022/08/12 06:17:29;;;;;;;12.65;8.62;;;;;;;28.56;41.69;100720.70;445285;119;922765;-75
2022/08/12 06:18:32;;;;;;;9.31;8.49;;;;;;;28.58;41.66;100709.16;445221;119;922721;-75
2022/08/12 06:19:35;;;;;;;9.31;8.53;;;;;;;28.59;41.65;100714.45;445329;119;922882;-74
2022/08/12 06:20:40;;;;;;;9.02;8.08;;;;;;;28.62;41.60;100715.74;442297;119;922681;-75
2022/08/12 06:21:47;;;;;;;9.49;8.64;;;;;;;28.65;41.58;100719.88;445281;119;922790;-75
2022/08/12 06:22:49;;;;;;;10.40;8.12;;;;;;;28.66;41.40;100715.92;445091;119;922875;-75
2022/08/12 06:23:55;;;;;;;10.31;9.32;;;;;;;28.68;41.28;100719.20;444929;119;922688;-75
2022/08/12 06:24:59;;;;;;;8.65;7.93;;;;;;;28.70;41.18;100716.90;445301;119;922702;-75
2022/08/12 06:26:03;;;;;;;8.77;7.93;;;;;;;28.72;41.16;100721.03;445252;119;922953;-75
2022/08/12 06:27:07;;;;;;;8.80;8.17;;;;;;;28.74;41.10;100717.91;445222;119;922789;-74
2022/08/12 06:28:21;;;;;;;9.01;8.33;;;;;;;28.76;41.03;100722.04;445353;119;922783;-74
2022/08/12 06:29:21;;;;;;;9.19;8.54;;;;;;;28.77;40.99;100720.89;443902;119;922980;-76